Accueil
METAR-TAF:

METAR-TAF

Aéroports :

Aéroport de Lahr

Lahr, Allemagne

latitude: 48-22-09N, longitude: 007-49-40E, altitude: 156 m

Observation

Le bulletin a été fait il y a 1 heure et 28 minutes, à 12:50 UTC
Vent 6 kt de est/nord-est, variant entre nord-ouest et est/sud-est
Température 26°C
Humidité 34%
Pression 1017 hPa
Visibilité 10 km ou plus
pas de nuages en-dessous de 1500 mètres et pas de cumulonimbus.

METAR: EDTL 011250Z 06006KT 320V120 CAVOK 26/09 Q1017

Heure: 16:18 (14:18 UTC)

Prévision

Le bulletin a été fait il y a 3 heures et 18 minutes, à 11:00 UTC
Prévision valable du 01 à 12 UTC au 01 à 21 UTC
Vent 8 kt de nord
Visibilité 10 km ou plus
pas de nuages en-dessous de 1500 mètres et pas de cumulonimbus.

TAF: EDTL 011100Z 0112/0121 01008KT CAVOK

Observations et prévisions météorologiques de plus de 4000 aéroports (messages METAR et TAF).

Les stations disponibles sont représentées par des disques jaunes et rouges sur la carte.

Passer la souris dessus pour voir le nom de la station.

Cliquer dessus pour voir les observations et prévisions météorologiques.

Pour changer de carte: cliquez sur les boutons verts avec une croix noire pour zoomer, sur le bouton vert avec un tiret pour effectuer un zoom arrière, ou sur les flèches vertes pour les cartes adjacentes.


METAR-TAF: